createdAt,value
2018-12-15T00:01:04.609Z,1.70
2018-12-15T00:03:33.965Z,1.60
2018-12-15T00:06:02.726Z,1.60
2018-12-15T00:08:31.711Z,1.60
2018-12-15T00:11:00.836Z,1.60
2018-12-15T00:13:29.662Z,1.60
2018-12-15T00:16:00.198Z,1.60
2018-12-15T00:18:30.347Z,1.60
2018-12-15T00:20:59.184Z,1.50
2018-12-15T00:23:28.583Z,1.50
2018-12-15T00:25:57.138Z,1.60
2018-12-15T00:28:26.940Z,1.60
2018-12-15T00:30:56.306Z,1.60
2018-12-15T00:33:25.398Z,1.50
2018-12-15T00:35:54.197Z,1.50
2018-12-15T00:38:22.962Z,1.60
2018-12-15T00:40:52.041Z,1.60
2018-12-15T00:43:22.611Z,1.60
2018-12-15T00:45:51.693Z,1.60
2018-12-15T00:48:20.482Z,1.60
2018-12-15T00:50:49.414Z,1.60
2018-12-15T00:53:18.134Z,1.60
2018-12-15T00:55:47.805Z,1.60
2018-12-15T00:58:17.408Z,1.50
2018-12-15T01:00:46.270Z,1.50
2018-12-15T01:03:15.115Z,1.50
2018-12-15T01:05:44.278Z,1.60
2018-12-15T01:08:13.300Z,1.60
2018-12-15T01:10:42.296Z,1.50
2018-12-15T01:13:11.492Z,1.60
2018-12-15T01:15:45.533Z,1.60
2018-12-15T01:18:14.669Z,1.60
2018-12-15T01:20:43.477Z,1.50
2018-12-15T01:23:12.249Z,1.50
2018-12-15T01:25:42.446Z,1.50
2018-12-15T01:28:12.454Z,1.50
2018-12-15T01:30:44.072Z,1.50
2018-12-15T01:33:12.797Z,1.50
2018-12-15T01:35:41.653Z,1.50
2018-12-15T01:38:10.428Z,1.50
2018-12-15T01:40:38.825Z,1.50
2018-12-15T01:43:08.237Z,1.50
2018-12-15T01:45:37.275Z,1.50
2018-12-15T01:48:05.959Z,1.50
2018-12-15T01:50:34.668Z,1.50
2018-12-15T01:53:03.430Z,1.50
2018-12-15T01:55:32.215Z,1.50
2018-12-15T01:58:01.530Z,1.60
2018-12-15T02:00:30.407Z,1.60
2018-12-15T02:03:04.361Z,1.50
2018-12-15T02:05:34.592Z,1.50
2018-12-15T02:08:04.228Z,1.50
2018-12-15T02:10:32.939Z,1.50
2018-12-15T02:13:01.798Z,1.50
2018-12-15T02:15:32.130Z,1.40
2018-12-15T02:18:00.565Z,1.40
2018-12-15T02:20:28.994Z,1.40
2018-12-15T02:22:58.491Z,1.40
2018-12-15T02:25:28.193Z,1.40
2018-12-15T02:27:57.316Z,1.40
2018-12-15T02:30:26.432Z,1.40
2018-12-15T02:32:59.313Z,1.40
2018-12-15T02:35:28.179Z,1.40
2018-12-15T02:37:56.979Z,1.40
2018-12-15T02:40:26.625Z,1.40
2018-12-15T02:42:55.375Z,1.40
2018-12-15T02:45:25.657Z,1.40
2018-12-15T02:47:54.395Z,1.40
2018-12-15T02:50:23.263Z,1.40
2018-12-15T02:52:52.463Z,1.40
2018-12-15T02:55:23.407Z,1.40
2018-12-15T02:57:53.956Z,1.40
2018-12-15T03:00:24.052Z,1.40
2018-12-15T03:02:52.910Z,1.40
2018-12-15T03:05:23.114Z,1.40
2018-12-15T03:07:57.337Z,1.00
2018-12-15T03:10:29.727Z,1.40
2018-12-15T03:12:59.139Z,1.40
2018-12-15T03:15:29.464Z,1.40
2018-12-15T03:17:58.563Z,1.40
2018-12-15T03:20:28.572Z,1.40
2018-12-15T03:22:57.672Z,1.40
2018-12-15T03:25:26.418Z,1.30
2018-12-15T03:27:54.877Z,1.30
2018-12-15T03:30:25.698Z,1.30
2018-12-15T03:32:54.486Z,1.30
2018-12-15T03:35:23.854Z,1.30
2018-12-15T03:37:52.787Z,1.00
2018-12-15T03:40:21.274Z,1.30
2018-12-15T03:42:50.143Z,1.30
2018-12-15T03:45:18.964Z,1.30
2018-12-15T03:47:47.984Z,1.30
2018-12-15T03:50:16.686Z,1.30
2018-12-15T03:52:46.607Z,1.30
2018-12-15T03:55:15.486Z,1.40
2018-12-15T03:57:44.374Z,1.40
2018-12-15T04:00:14.023Z,1.40
2018-12-15T04:02:43.763Z,1.40
2018-12-15T04:05:12.893Z,1.40
2018-12-15T04:07:41.788Z,1.40
2018-12-15T04:10:10.711Z,1.50
2018-12-15T04:12:39.574Z,1.40
2018-12-15T04:15:08.450Z,1.40
2018-12-15T04:17:49.456Z,1.40
2018-12-15T04:20:20.872Z,1.40
2018-12-15T04:22:50.139Z,1.50
2018-12-15T04:25:21.287Z,1.40
2018-12-15T04:27:50.177Z,1.40
2018-12-15T04:30:21.531Z,1.40
2018-12-15T04:32:51.511Z,1.50
2018-12-15T04:35:19.951Z,1.50
2018-12-15T04:37:48.698Z,1.70
2018-12-15T04:40:18.687Z,1.40
2018-12-15T04:42:53.108Z,1.40
2018-12-15T04:45:21.957Z,1.40
2018-12-15T04:47:51.967Z,1.40
2018-12-15T04:50:21.190Z,1.50
2018-12-15T04:52:50.057Z,1.50
2018-12-15T04:55:18.601Z,1.40
2018-12-15T04:57:47.033Z,1.40
2018-12-15T05:00:15.856Z,1.50
2018-12-15T05:02:45.801Z,1.50
2018-12-15T05:05:15.669Z,1.50
2018-12-15T05:07:44.386Z,1.50
2018-12-15T05:10:13.997Z,1.50
2018-12-15T05:12:42.916Z,1.50
2018-12-15T05:15:11.710Z,1.50
2018-12-15T05:17:40.424Z,1.60
2018-12-15T05:20:09.722Z,1.50
2018-12-15T05:22:38.981Z,1.50
2018-12-15T05:25:07.934Z,1.40
2018-12-15T05:27:36.617Z,1.40
2018-12-15T05:30:06.941Z,1.50
2018-12-15T05:32:35.705Z,1.50
2018-12-15T05:35:05.011Z,1.40
2018-12-15T05:37:33.831Z,1.50
2018-12-15T05:40:02.369Z,1.50
2018-12-15T05:42:31.363Z,1.40
2018-12-15T05:45:00.164Z,1.40
2018-12-15T05:47:28.917Z,1.40
2018-12-15T05:49:59.680Z,1.40
2018-12-15T05:52:28.405Z,1.40
2018-12-15T05:54:57.477Z,1.40
2018-12-15T05:57:25.919Z,1.40
2018-12-15T05:59:54.431Z,1.40
2018-12-15T06:02:23.694Z,1.40
2018-12-15T06:04:54.537Z,1.40
2018-12-15T06:07:23.313Z,1.40
2018-12-15T06:09:52.049Z,1.40
2018-12-15T06:12:20.922Z,1.40
2018-12-15T06:14:49.402Z,1.40
2018-12-15T06:17:18.312Z,1.40
2018-12-15T06:19:47.083Z,1.30
2018-12-15T06:22:15.941Z,1.40
2018-12-15T06:24:44.649Z,1.30
2018-12-15T06:27:13.333Z,1.30
2018-12-15T06:29:42.621Z,1.30
2018-12-15T06:32:11.385Z,1.40
2018-12-15T06:34:40.122Z,1.20
2018-12-15T06:37:09.216Z,1.20
2018-12-15T06:39:38.444Z,1.30
2018-12-15T06:42:07.374Z,1.30
2018-12-15T06:44:36.388Z,1.30
2018-12-15T06:47:04.858Z,1.30
2018-12-15T06:49:34.346Z,1.30
2018-12-15T06:52:03.083Z,1.30
2018-12-15T06:54:31.798Z,1.30
2018-12-15T06:57:00.829Z,1.30
2018-12-15T06:59:29.649Z,1.30
2018-12-15T07:01:58.136Z,1.30
2018-12-15T07:04:26.975Z,1.30
2018-12-15T07:06:56.357Z,1.30
2018-12-15T07:09:25.212Z,1.30
2018-12-15T07:11:56.992Z,1.30
2018-12-15T07:14:25.802Z,1.30
2018-12-15T07:16:54.308Z,1.40
2018-12-15T07:19:24.028Z,1.30
2018-12-15T07:21:52.864Z,1.30
2018-12-15T07:24:21.473Z,1.30
2018-12-15T07:26:50.853Z,1.20
2018-12-15T07:29:20.550Z,1.30
2018-12-15T07:31:49.603Z,1.30
2018-12-15T07:34:18.519Z,1.70
2018-12-15T07:36:54.126Z,1.40
2018-12-15T07:39:23.362Z,1.40
2018-12-15T07:41:55.637Z,1.40
2018-12-15T07:44:37.755Z,1.40
2018-12-15T07:47:07.254Z,1.40
2018-12-15T07:49:37.002Z,1.30
2018-12-15T07:52:07.706Z,1.30
2018-12-15T07:54:37.028Z,1.30
2018-12-15T07:57:06.641Z,1.40
2018-12-15T07:59:39.031Z,1.40
2018-12-15T08:02:07.764Z,1.40
2018-12-15T08:04:37.032Z,1.50
2018-12-15T08:07:06.289Z,1.40
2018-12-15T08:09:37.238Z,1.30
2018-12-15T08:12:12.774Z,1.30
2018-12-15T08:14:44.770Z,1.40
2018-12-15T08:17:14.782Z,1.40
2018-12-15T08:19:45.156Z,1.50
2018-12-15T08:22:14.012Z,1.50
2018-12-15T08:24:44.058Z,1.50
2018-12-15T08:27:13.543Z,1.50
2018-12-15T08:29:44.290Z,1.60
2018-12-15T08:32:13.327Z,1.60
2018-12-15T08:34:42.326Z,1.60
2018-12-15T08:37:10.830Z,1.60
2018-12-15T08:39:39.629Z,1.60
2018-12-15T08:42:09.582Z,1.70
2018-12-15T08:44:38.463Z,1.60
2018-12-15T08:47:07.741Z,1.60
2018-12-15T08:49:37.595Z,1.70
2018-12-15T08:52:10.970Z,1.80
2018-12-15T08:54:41.578Z,1.80
2018-12-15T08:57:25.356Z,1.80
2018-12-15T08:59:57.309Z,1.80
2018-12-15T09:02:34.396Z,1.80
2018-12-15T09:05:03.963Z,1.80
2018-12-15T09:07:34.134Z,1.80
2018-12-15T09:10:03.250Z,1.90
2018-12-15T09:12:33.742Z,1.80
2018-12-15T09:15:02.770Z,1.80
2018-12-15T09:17:32.240Z,1.90
2018-12-15T09:20:01.353Z,1.90
2018-12-15T09:22:30.991Z,2.00
2018-12-15T09:25:01.379Z,2.00
2018-12-15T09:27:31.108Z,2.00
2018-12-15T09:30:00.330Z,2.10
2018-12-15T09:32:29.746Z,2.10
2018-12-15T09:35:00.182Z,2.00
2018-12-15T09:37:30.988Z,2.10
2018-12-15T09:39:59.482Z,2.20
2018-12-15T09:42:29.233Z,2.20
2018-12-15T09:44:59.381Z,2.20
2018-12-15T09:47:27.311Z,2.20
2018-12-15T09:49:58.670Z,2.30
2018-12-15T09:55:01.531Z,2.30
2018-12-15T09:57:29.456Z,2.30
2018-12-15T09:59:57.819Z,2.40
2018-12-15T10:02:25.687Z,2.40
2018-12-15T10:04:53.500Z,2.50
2018-12-15T10:07:21.688Z,2.50
2018-12-15T10:09:49.533Z,2.50
2018-12-15T10:12:17.391Z,2.50
2018-12-15T10:14:46.379Z,2.60
2018-12-15T10:17:14.200Z,2.60
2018-12-15T10:19:42.295Z,2.60
2018-12-15T10:22:10.613Z,2.60
2018-12-15T10:24:38.539Z,2.50
2018-12-15T10:27:06.352Z,2.50
2018-12-15T10:29:40.032Z,2.50
2018-12-15T10:32:13.343Z,2.50
2018-12-15T10:34:41.371Z,2.60
2018-12-15T10:37:09.642Z,2.70
2018-12-15T10:39:37.713Z,2.70
2018-12-15T10:42:06.006Z,2.80
2018-12-15T10:44:33.866Z,2.80
2018-12-15T10:47:01.754Z,2.70
2018-12-15T10:49:30.845Z,2.90
2018-12-15T10:51:59.302Z,3.00
2018-12-15T10:54:27.141Z,3.00
2018-12-15T10:56:55.501Z,3.10
2018-12-15T10:59:23.582Z,3.20
2018-12-15T11:01:51.443Z,3.20
2018-12-15T11:04:19.854Z,3.20
2018-12-15T11:06:47.716Z,3.20
2018-12-15T11:09:15.527Z,3.10
2018-12-15T11:11:43.671Z,3.20
2018-12-15T11:14:11.736Z,3.30
2018-12-15T11:16:39.705Z,3.20
2018-12-15T11:19:07.968Z,3.20
2018-12-15T11:21:36.134Z,3.20
2018-12-15T11:24:04.110Z,3.20
2018-12-15T11:26:32.559Z,3.10
2018-12-15T11:29:00.767Z,3.10
2018-12-15T11:31:28.627Z,3.20
2018-12-15T11:33:56.715Z,3.20
2018-12-15T11:36:24.578Z,3.30
2018-12-15T11:38:52.842Z,3.40
2018-12-15T11:41:20.675Z,3.40
2018-12-15T11:43:48.805Z,3.40
2018-12-15T11:46:17.258Z,3.40
2018-12-15T11:48:45.529Z,3.50
2018-12-15T11:51:13.382Z,3.40
2018-12-15T11:53:41.349Z,3.40
2018-12-15T11:56:09.307Z,3.40
2018-12-15T11:58:37.846Z,3.50
2018-12-15T12:01:06.085Z,3.50
2018-12-15T12:03:33.973Z,3.40
2018-12-15T12:06:02.395Z,3.50
2018-12-15T12:08:30.256Z,3.30
2018-12-15T12:10:58.604Z,3.30
2018-12-15T12:13:26.966Z,3.20
2018-12-15T12:15:54.818Z,3.20
2018-12-15T12:18:22.887Z,3.00
2018-12-15T12:20:51.368Z,3.00
2018-12-15T12:23:19.196Z,2.80
2018-12-15T12:25:47.024Z,2.70
2018-12-15T12:28:15.224Z,2.60
2018-12-15T12:30:43.236Z,2.60
2018-12-15T12:33:11.251Z,2.60
2018-12-15T12:35:39.347Z,2.60
2018-12-15T12:38:07.663Z,2.50
2018-12-15T12:40:35.763Z,2.60
2018-12-15T12:43:04.090Z,2.60
2018-12-15T12:45:32.581Z,2.50
2018-12-15T12:48:01.267Z,2.40
2018-12-15T12:50:29.622Z,2.40
2018-12-15T12:52:57.834Z,2.40
2018-12-15T12:55:25.887Z,2.50
2018-12-15T12:57:53.949Z,2.50
2018-12-15T13:00:22.060Z,2.50
2018-12-15T13:02:49.911Z,2.40
2018-12-15T13:05:18.142Z,2.40
2018-12-15T13:07:46.442Z,2.30
2018-12-15T13:10:14.325Z,2.30
2018-12-15T13:12:42.148Z,2.20
2018-12-15T13:15:10.451Z,2.10
2018-12-15T13:17:38.727Z,2.10
2018-12-15T13:20:06.980Z,2.10
2018-12-15T13:22:35.387Z,2.10
2018-12-15T13:25:03.299Z,2.10
2018-12-15T13:27:31.517Z,2.10
2018-12-15T13:29:59.556Z,2.10
2018-12-15T13:32:27.559Z,2.10
2018-12-15T13:34:56.040Z,2.00
2018-12-15T13:37:24.316Z,1.90
2018-12-15T13:39:52.588Z,1.80
2018-12-15T13:42:20.867Z,1.80
2018-12-15T13:44:48.883Z,1.70
2018-12-15T13:47:17.032Z,1.80
2018-12-15T13:49:45.993Z,1.80
2018-12-15T13:52:13.839Z,1.70
2018-12-15T13:54:42.141Z,1.70
2018-12-15T13:57:10.977Z,1.70
2018-12-15T13:59:38.790Z,1.70
2018-12-15T14:02:07.078Z,1.70
2018-12-15T14:04:37.028Z,1.70
2018-12-15T14:07:04.843Z,1.80
2018-12-15T14:09:32.671Z,1.80
2018-12-15T14:12:00.931Z,1.80
2018-12-15T14:14:28.937Z,1.70
2018-12-15T14:16:56.810Z,1.70
2018-12-15T14:19:24.936Z,1.60
2018-12-15T14:21:53.156Z,1.60
2018-12-15T14:24:21.131Z,1.60
2018-12-15T14:26:49.406Z,1.50
2018-12-15T14:29:17.679Z,1.50
2018-12-15T14:31:45.751Z,1.60
2018-12-15T14:34:13.861Z,1.50
2018-12-15T14:36:41.932Z,1.50
2018-12-15T14:39:09.828Z,1.50
2018-12-15T14:41:37.677Z,1.60
2018-12-15T14:44:06.235Z,1.50
2018-12-15T14:46:34.359Z,1.50
2018-12-15T14:49:02.232Z,1.50
2018-12-15T14:51:30.408Z,1.40
2018-12-15T14:53:58.664Z,1.40
2018-12-15T14:56:26.562Z,1.40
2018-12-15T14:58:54.834Z,1.30
2018-12-15T15:01:22.809Z,1.30
2018-12-15T15:03:50.923Z,1.40
2018-12-15T15:06:19.144Z,1.40
2018-12-15T15:08:47.110Z,1.40
2018-12-15T15:11:15.181Z,1.40
2018-12-15T15:13:43.661Z,1.30
2018-12-15T15:16:13.119Z,1.30
2018-12-15T15:18:40.959Z,1.30
2018-12-15T15:21:09.168Z,1.30
2018-12-15T15:23:37.079Z,1.30
2018-12-15T15:26:04.954Z,1.30
2018-12-15T15:28:33.210Z,1.40
2018-12-15T15:31:01.091Z,1.40
2018-12-15T15:33:29.704Z,1.40
2018-12-15T15:35:57.712Z,1.40
2018-12-15T15:38:25.901Z,1.40
2018-12-15T15:40:54.097Z,1.40
2018-12-15T15:43:22.246Z,1.30
2018-12-15T15:45:50.114Z,1.40
2018-12-15T15:48:19.422Z,1.40
2018-12-15T15:50:47.246Z,1.40
2018-12-15T15:53:15.150Z,1.40
2018-12-15T15:55:43.628Z,1.30
2018-12-15T15:58:11.912Z,1.40
2018-12-15T16:00:40.068Z,1.50
2018-12-15T16:03:08.358Z,1.40
2018-12-15T16:05:36.381Z,1.40
2018-12-15T16:08:04.794Z,1.40
2018-12-15T16:10:33.482Z,1.50
2018-12-15T16:13:01.357Z,1.50
2018-12-15T16:15:29.225Z,1.50
2018-12-15T16:17:59.124Z,1.50
2018-12-15T16:20:28.632Z,1.40
2018-12-15T16:22:56.752Z,1.50
2018-12-15T16:25:26.209Z,1.50
2018-12-15T16:27:55.297Z,1.40
2018-12-15T16:30:23.365Z,1.50
2018-12-15T16:32:51.638Z,1.40
2018-12-15T16:35:20.127Z,1.50
2018-12-15T16:37:47.995Z,1.40
2018-12-15T16:40:16.261Z,1.40
2018-12-15T16:42:46.720Z,1.40
2018-12-15T16:45:15.041Z,1.40
2018-12-15T16:47:43.110Z,1.30
2018-12-15T16:50:11.421Z,1.40
2018-12-15T16:52:40.715Z,1.30
2018-12-15T16:55:08.988Z,1.20
2018-12-15T16:57:36.853Z,1.30
2018-12-15T17:00:07.588Z,1.20
2018-12-15T17:02:35.840Z,1.10
2018-12-15T17:05:05.155Z,1.10
2018-12-15T17:07:33.224Z,1.10
2018-12-15T17:10:04.137Z,1.00
2018-12-15T17:12:32.130Z,1.00
2018-12-15T17:15:01.027Z,1.00
2018-12-15T17:17:28.875Z,1.00
2018-12-15T17:19:58.328Z,1.10
2018-12-15T17:22:26.337Z,1.00
2018-12-15T17:24:54.474Z,1.10
2018-12-15T17:27:28.938Z,1.00
2018-12-15T17:29:57.106Z,1.10
2018-12-15T17:32:24.990Z,1.10
2018-12-15T17:34:53.612Z,1.10
2018-12-15T17:37:22.128Z,1.10
2018-12-15T17:39:51.233Z,1.10
2018-12-15T17:42:19.318Z,1.10
2018-12-15T17:44:47.192Z,1.20
2018-12-15T17:47:16.797Z,1.20
2018-12-15T17:49:44.864Z,1.20
2018-12-15T17:52:14.144Z,1.20
2018-12-15T17:54:42.002Z,1.10
2018-12-15T17:57:09.853Z,1.10
2018-12-15T17:59:38.228Z,1.10
2018-12-15T18:02:06.106Z,1.10
2018-12-15T18:04:33.966Z,1.10
2018-12-15T18:07:02.085Z,1.10
2018-12-15T18:09:30.143Z,1.10
2018-12-15T18:11:58.621Z,1.10
2018-12-15T18:14:26.659Z,1.10
2018-12-15T18:16:55.143Z,1.10
2018-12-15T18:19:23.755Z,1.20
2018-12-15T18:21:51.730Z,1.20
2018-12-15T18:24:20.410Z,1.20
2018-12-15T18:26:49.042Z,1.20
2018-12-15T18:29:17.793Z,1.00
2018-12-15T18:31:46.541Z,1.30
2018-12-15T18:34:16.295Z,1.30
2018-12-15T18:36:45.027Z,1.20
2018-12-15T18:39:15.101Z,1.20
2018-12-15T18:41:46.686Z,1.20
2018-12-15T18:44:17.411Z,1.10
2018-12-15T18:46:47.085Z,1.10
2018-12-15T18:49:15.549Z,1.10
2018-12-15T18:51:44.621Z,1.20
2018-12-15T18:54:15.250Z,1.20
2018-12-15T18:56:43.453Z,1.30
2018-12-15T18:59:11.968Z,1.20
2018-12-15T19:01:40.486Z,1.30
2018-12-15T19:04:08.889Z,1.30
2018-12-15T19:06:37.220Z,1.30
2018-12-15T19:09:07.697Z,1.30
2018-12-15T19:11:37.198Z,1.30
2018-12-15T19:14:08.567Z,1.30
2018-12-15T19:16:37.399Z,1.30
2018-12-15T19:19:05.951Z,1.40
2018-12-15T19:21:33.830Z,1.40
2018-12-15T19:24:02.051Z,1.40
2018-12-15T19:26:30.133Z,1.40
2018-12-15T19:28:57.992Z,1.40
2018-12-15T19:31:25.841Z,1.40
2018-12-15T19:33:54.337Z,1.40
2018-12-15T19:36:22.186Z,1.50
2018-12-15T19:38:50.052Z,1.60
2018-12-15T19:41:18.206Z,1.50
2018-12-15T19:43:47.643Z,1.60
2018-12-15T19:46:15.489Z,1.60
2018-12-15T19:48:43.329Z,1.50
2018-12-15T19:51:11.493Z,1.60
2018-12-15T19:53:39.642Z,1.60
2018-12-15T19:56:09.900Z,1.60
2018-12-15T19:58:37.984Z,1.60
2018-12-15T20:01:10.176Z,1.60
2018-12-15T20:03:38.404Z,1.60
2018-12-15T20:06:08.162Z,1.70
2018-12-15T20:08:36.003Z,1.60
2018-12-15T20:11:05.125Z,1.70
2018-12-15T20:13:33.599Z,1.60
2018-12-15T20:16:01.771Z,1.70
2018-12-15T20:18:29.844Z,1.60
2018-12-15T20:20:58.146Z,1.60
2018-12-15T20:23:26.785Z,1.60
2018-12-15T20:25:55.246Z,1.70
2018-12-15T20:28:23.573Z,1.60
2018-12-15T20:30:51.932Z,1.60
2018-12-15T20:33:19.781Z,1.60
2018-12-15T20:35:47.660Z,1.60
2018-12-15T20:38:16.823Z,1.50
2018-12-15T20:40:45.242Z,1.60
2018-12-15T20:43:13.495Z,1.60
2018-12-15T20:45:42.116Z,1.50
2018-12-15T20:48:13.279Z,1.50
2018-12-15T20:50:42.976Z,1.50
2018-12-15T20:53:12.240Z,1.50
2018-12-15T20:55:41.396Z,1.50
2018-12-15T20:58:09.313Z,1.50
2018-12-15T21:00:37.734Z,1.60
2018-12-15T21:03:06.127Z,1.50
2018-12-15T21:05:36.732Z,1.60
2018-12-15T21:08:10.053Z,1.60
2018-12-15T21:10:40.365Z,1.50
2018-12-15T21:13:09.596Z,1.50
2018-12-15T21:15:40.129Z,1.50
2018-12-15T21:18:09.177Z,1.50
2018-12-15T21:20:37.327Z,1.60
2018-12-15T21:23:05.521Z,1.60
2018-12-15T21:25:33.395Z,1.60
2018-12-15T21:28:03.939Z,1.60
2018-12-15T21:30:32.788Z,1.60
2018-12-15T21:33:03.252Z,1.50
2018-12-15T21:35:32.554Z,1.50
2018-12-15T21:38:01.238Z,1.50
2018-12-15T21:40:30.282Z,1.50
2018-12-15T21:42:59.390Z,1.40
2018-12-15T21:45:27.570Z,1.40
2018-12-15T21:47:57.856Z,1.30
2018-12-15T21:50:25.830Z,1.40
2018-12-15T21:52:54.103Z,1.40
2018-12-15T21:55:28.535Z,1.40
2018-12-15T21:57:57.323Z,1.30
2018-12-15T22:00:25.819Z,1.20
2018-12-15T22:02:56.044Z,0.80
2018-12-15T22:08:44.994Z,1.00
2018-12-15T22:11:13.464Z,1.00
2018-12-15T22:13:41.336Z,0.90
2018-12-15T22:16:09.607Z,0.80
2018-12-15T22:18:37.681Z,0.80
2018-12-15T22:21:05.589Z,0.70
2018-12-15T22:23:34.118Z,0.70
2018-12-15T22:26:02.279Z,0.70
2018-12-15T22:28:30.371Z,0.60
2018-12-15T22:30:58.414Z,0.60
2018-12-15T22:33:26.779Z,0.60
2018-12-15T22:35:55.599Z,0.50
2018-12-15T22:38:23.934Z,0.50
2018-12-15T22:40:51.787Z,0.50
2018-12-15T22:43:21.545Z,0.40
2018-12-15T22:45:49.436Z,0.40
2018-12-15T22:48:18.059Z,0.40
2018-12-15T22:50:48.166Z,0.40
2018-12-15T22:53:17.354Z,0.30
2018-12-15T22:55:45.285Z,0.30
2018-12-15T22:58:14.570Z,0.20
2018-12-15T23:00:49.813Z,0.30
2018-12-15T23:03:17.686Z,0.30
2018-12-15T23:05:47.039Z,0.30
2018-12-15T23:08:15.133Z,0.40
2018-12-15T23:10:43.422Z,0.40
2018-12-15T23:13:11.837Z,0.50
2018-12-15T23:15:39.941Z,0.50
2018-12-15T23:18:08.311Z,0.50
2018-12-15T23:20:36.782Z,0.50
2018-12-15T23:23:05.033Z,0.40
2018-12-15T23:25:32.881Z,0.20
2018-12-15T23:28:00.749Z,0.10
2018-12-15T23:30:28.817Z,0.10
2018-12-15T23:32:56.888Z,0.10
2018-12-15T23:35:25.369Z,0.10
2018-12-15T23:37:53.458Z,0.00
2018-12-15T23:40:21.330Z,0.00
2018-12-15T23:42:49.786Z,0.00
2018-12-15T23:45:18.060Z,0.10
2018-12-15T23:47:45.942Z,0.00
2018-12-15T23:50:14.056Z,0.10
2018-12-15T23:52:42.062Z,0.10
2018-12-15T23:55:10.439Z,0.10
2018-12-15T23:57:38.576Z,0.20
